Time;durP1;ratioP1;P1;durP2;ratioP2;P2;SDS_P1;SDS_P2;PMS_P1;PMS_P2;Temp;Humidity;BMP_temperature;BMP_pressure;BME280_temperature;BME280_humidity;BME280_pressure;Samples;Min_cycle;Max_cycle;Signal;HPM_P1;HPM_P2
2022/07/21 13:37:45;;;;;;;7.38;1.90;;;19.00;99.90;;;;;;5341586;23;20364;-74
2022/07/21 13:40:11;;;;;;;3.45;2.08;;;19.00;99.90;;;;;;4851974;29;20083;-75
2022/07/21 13:42:37;;;;;;;3.33;2.50;;;19.00;99.90;;;;;;4851074;29;20029;-76
2022/07/21 13:45:03;;;;;;;3.95;2.25;;;19.00;99.90;;;;;;4850789;29;20032;-76
2022/07/21 13:47:29;;;;;;;3.35;2.10;;;19.10;99.90;;;;;;4850822;29;20034;-77
2022/07/21 13:49:55;;;;;;;2.97;2.67;;;19.20;99.90;;;;;;4853380;29;20040;-77
2022/07/21 13:52:20;;;;;;;5.60;2.80;;;19.30;99.90;;;;;;4850634;29;20060;-77
2022/07/21 13:54:46;;;;;;;6.10;3.42;;;19.20;99.90;;;;;;4855513;29;20034;-77
2022/07/21 13:57:12;;;;;;;6.13;3.08;;;19.20;99.90;;;;;;4850105;29;20017;-76
2022/07/21 13:59:37;;;;;;;5.50;3.38;;;19.20;99.90;;;;;;4849251;29;20033;-75
2022/07/21 14:02:03;;;;;;;4.65;2.80;;;19.20;99.90;;;;;;4834996;29;20021;-74
2022/07/21 14:04:28;;;;;;;5.35;3.38;;;19.20;99.90;;;;;;4833626;29;20537;-74
2022/07/21 14:06:54;;;;;;;11.48;4.13;;;19.10;99.90;;;;;;4850056;29;20065;-76
2022/07/21 14:09:20;;;;;;;8.82;5.18;;;19.20;99.90;;;;;;4836893;29;20037;-75
2022/07/21 14:11:47;;;;;;;12.60;4.95;;;19.50;99.90;;;;;;4853906;29;20029;-76
2022/07/21 14:14:16;;;;;;;9.45;5.72;;;19.70;99.90;;;;;;4836614;29;20076;-77
2022/07/21 14:16:43;;;;;;;6.88;6.07;;;19.70;99.90;;;;;;4852889;29;21419;-76
2022/07/21 14:19:09;;;;;;;7.60;4.43;;;19.70;99.90;;;;;;4854626;29;20136;-76
2022/07/21 14:21:34;;;;;;;10.07;4.40;;;19.50;99.90;;;;;;4865255;29;20163;-78
2022/07/21 14:26:44;;;;;;;11.50;5.53;;;19.10;99.90;;;;;;4856938;29;20418;-77
2022/07/21 14:29:09;;;;;;;6.18;5.53;;;19.00;99.90;;;;;;4861300;29;20025;-76
2022/07/21 14:31:35;;;;;;;6.55;5.88;;;18.90;99.90;;;;;;4854087;29;20029;-77
2022/07/21 14:34:00;;;;;;;8.15;6.05;;;18.90;99.90;;;;;;4853787;29;20249;-78
2022/07/21 14:36:26;;;;;;;12.98;6.30;;;18.90;99.90;;;;;;4856468;29;20108;-76
2022/07/21 14:38:53;;;;;;;9.05;6.53;;;18.90;99.90;;;;;;4856761;29;20041;-78
2022/07/21 14:41:18;;;;;;;8.95;6.40;;;18.90;99.90;;;;;;4852939;29;20029;-78
2022/07/21 14:43:45;;;;;;;10.55;5.07;;;18.90;99.90;;;;;;4836522;29;20489;-76
2022/07/21 14:46:11;;;;;;;8.80;5.60;;;18.90;99.90;;;;;;4840830;29;20042;-77
2022/07/21 14:48:36;;;;;;;5.90;2.50;;;18.90;99.90;;;;;;4857310;29;20513;-78
2022/07/21 14:51:02;;;;;;;6.20;2.35;;;18.80;99.90;;;;;;4846066;29;20025;-77
2022/07/21 14:53:27;;;;;;;7.30;2.15;;;18.60;99.90;;;;;;4860164;29;20523;-77
2022/07/21 14:55:53;;;;;;;8.25;1.65;;;18.40;99.90;;;;;;4871295;29;20037;-77
2022/07/21 14:58:18;;;;;;;2.60;1.60;;;18.40;99.90;;;;;;4875576;29;20525;-77
2022/07/21 15:00:44;;;;;;;10.10;1.30;;;18.40;99.90;;;;;;4860030;29;20113;-77
2022/07/21 15:03:10;;;;;;;6.70;1.38;;;18.20;99.90;;;;;;4843080;29;20036;-78
2022/07/21 15:05:35;;;;;;;5.47;1.40;;;18.20;99.90;;;;;;4857074;29;20555;-77
2022/07/21 15:08:01;;;;;;;9.15;2.08;;;18.20;99.90;;;;;;4853884;29;20104;-76
2022/07/21 15:10:26;;;;;;;5.38;1.30;;;18.30;99.90;;;;;;4852263;29;20025;-77
2022/07/21 15:12:52;;;;;;;6.60;1.33;;;18.40;99.90;;;;;;4835485;29;20034;-75
2022/07/21 15:15:17;;;;;;;8.82;1.45;;;18.30;99.90;;;;;;4854378;29;20050;-78
2022/07/21 15:17:43;;;;;;;1.65;1.10;;;18.30;99.90;;;;;;4852310;29;21884;-77
2022/07/21 15:20:09;;;;;;;1.33;1.25;;;18.20;99.90;;;;;;4851502;29;20144;-77
2022/07/21 15:22:35;;;;;;;5.93;1.58;;;18.20;99.90;;;;;;4851996;29;20044;-78
2022/07/21 15:25:02;;;;;;;3.00;1.55;;;18.20;99.90;;;;;;4858119;29;20033;-77
2022/07/21 15:27:28;;;;;;;3.15;1.10;;;18.10;99.90;;;;;;4856405;29;20348;-77
2022/07/21 15:29:54;;;;;;;2.58;1.50;;;18.10;99.90;;;;;;4841978;29;20047;-77
2022/07/21 15:32:19;;;;;;;7.07;1.77;;;18.10;99.90;;;;;;4852448;29;20042;-75
2022/07/21 15:34:45;;;;;;;4.18;1.30;;;18.10;99.90;;;;;;4864813;29;20051;-78
2022/07/21 15:37:11;;;;;;;12.25;1.85;;;18.10;99.90;;;;;;4860618;29;20044;-78
2022/07/21 15:39:38;;;;;;;5.05;1.65;;;18.00;99.90;;;;;;4858463;29;20393;-78
2022/07/21 15:42:08;;;;;;;6.05;2.63;;;17.90;99.90;;;;;;4855780;29;20025;-78
2022/07/21 15:44:34;;;;;;;11.40;1.70;;;17.90;99.90;;;;;;4851209;29;20116;-77
2022/07/21 15:47:00;;;;;;;3.80;1.60;;;17.90;99.90;;;;;;4857456;29;20116;-76
2022/07/21 15:49:26;;;;;;;6.53;1.63;;;17.90;99.90;;;;;;4859740;29;20026;-78
2022/07/21 15:51:51;;;;;;;4.43;2.25;;;17.80;99.90;;;;;;4843975;29;20037;-77
2022/07/21 15:54:17;;;;;;;3.30;1.17;;;17.70;99.90;;;;;;4866864;29;20037;-78
2022/07/21 15:56:42;;;;;;;16.40;1.98;;;17.70;99.90;;;;;;4842173;29;20033;-79
2022/07/21 16:01:52;;;;;;;6.68;1.48;;;17.60;99.90;;;;;;4857542;29;20097;-77
2022/07/21 16:04:17;;;;;;;5.10;1.17;;;17.60;99.90;;;;;;4846327;29;20034;-77
2022/07/21 16:06:43;;;;;;;4.70;1.20;;;17.60;99.90;;;;;;4842891;29;20045;-77
2022/07/21 16:09:08;;;;;;;7.00;1.65;;;17.60;99.90;;;;;;4854487;29;20029;-78
2022/07/21 16:11:34;;;;;;;5.10;1.15;;;17.60;99.90;;;;;;4849746;29;20033;-77
2022/07/21 16:14:00;;;;;;;5.22;1.30;;;17.50;99.90;;;;;;4841998;29;20034;-77
2022/07/21 16:16:25;;;;;;;4.47;1.20;;;17.50;99.90;;;;;;4861746;29;20034;-77
2022/07/21 16:18:51;;;;;;;8.18;1.33;;;17.50;99.90;;;;;;4855108;29;20501;-77
2022/07/21 16:21:16;;;;;;;4.07;1.05;;;17.50;99.90;;;;;;4850106;29;20063;-78
2022/07/21 16:23:42;;;;;;;7.53;1.70;;;17.50;99.90;;;;;;4866861;29;20030;-77
2022/07/21 16:26:07;;;;;;;3.03;1.17;;;17.50;99.90;;;;;;4871190;29;20094;-78
2022/07/21 16:28:33;;;;;;;4.45;1.02;;;17.50;99.90;;;;;;4867306;29;20036;-78
2022/07/21 16:30:59;;;;;;;5.00;1.20;;;17.50;99.90;;;;;;4852608;29;20021;-78
2022/07/21 16:33:25;;;;;;;3.40;1.20;;;17.50;99.90;;;;;;4859580;29;20078;-77
2022/07/21 16:35:50;;;;;;;3.75;1.08;;;17.60;99.90;;;;;;4851902;29;20482;-77
2022/07/21 16:38:16;;;;;;;2.00;0.90;;;17.60;99.90;;;;;;4869121;29;20065;-78
2022/07/21 16:40:41;;;;;;;10.55;1.23;;;17.70;99.90;;;;;;4847822;29;20029;-78
2022/07/21 16:43:07;;;;;;;5.45;1.17;;;17.70;99.90;;;;;;4864481;29;20055;-77
2022/07/21 16:45:33;;;;;;;3.22;1.20;;;17.70;99.90;;;;;;4861105;29;20045;-78
2022/07/21 16:47:59;;;;;;;5.90;0.95;;;17.60;99.90;;;;;;4859410;29;20033;-78
2022/07/21 16:50:25;;;;;;;3.65;1.40;;;17.60;99.90;;;;;;4862185;29;20026;-77
2022/07/21 16:52:50;;;;;;;1.05;0.63;;;17.60;99.90;;;;;;4866491;29;20032;-78
2022/07/21 16:55:16;;;;;;;1.40;0.60;;;17.70;99.90;;;;;;4857408;29;20087;-78
2022/07/21 16:57:43;;;;;;;5.03;0.90;;;17.60;99.90;;;;;;4862596;29;20068;-77
2022/07/21 17:00:10;;;;;;;2.38;0.90;;;17.60;99.90;;;;;;4848217;29;20387;-76
2022/07/21 17:02:35;;;;;;;3.40;1.00;;;17.70;99.90;;;;;;4853238;29;20029;-79
2022/07/21 17:05:01;;;;;;;2.60;0.90;;;17.70;99.90;;;;;;4844280;29;20041;-77
2022/07/21 17:07:27;;;;;;;3.38;0.85;;;17.60;99.90;;;;;;4845256;29;20139;-78
2022/07/21 17:09:52;;;;;;;6.50;1.10;;;17.60;99.90;;;;;;4850671;29;20435;-78
2022/07/21 17:12:18;;;;;;;1.65;1.30;;;17.50;99.90;;;;;;4839292;29;20486;-78
2022/07/21 17:14:43;;;;;;;1.08;0.93;;;17.50;99.90;;;;;;4854481;29;20078;-78
2022/07/21 17:17:09;;;;;;;2.88;1.83;;;17.50;99.90;;;;;;4845228;29;20029;-78
2022/07/21 17:19:34;;;;;;;1.65;0.82;;;17.50;99.90;;;;;;4861808;29;20505;-78
2022/07/21 17:22:01;;;;;;;3.10;1.20;;;17.50;99.90;;;;;;4873644;29;20030;-78
2022/07/21 17:24:26;;;;;;;2.35;1.23;;;17.40;99.90;;;;;;4863522;29;20484;-78
2022/07/21 17:26:52;;;;;;;6.35;1.48;;;17.30;99.90;;;;;;4849999;29;20121;-78
2022/07/21 17:29:18;;;;;;;4.70;1.70;;;17.30;99.90;;;;;;4836566;29;20052;-76
2022/07/21 17:31:43;;;;;;;3.08;1.65;;;17.30;99.90;;;;;;4861711;29;20036;-79
2022/07/21 17:34:09;;;;;;;3.83;1.10;;;17.30;99.90;;;;;;4858662;29;20041;-76
2022/07/21 17:36:35;;;;;;;5.03;1.27;;;17.30;99.90;;;;;;4857122;29;20026;-78
2022/07/21 17:39:02;;;;;;;3.30;1.48;;;17.40;99.90;;;;;;4850825;29;20042;-78
2022/07/21 17:41:28;;;;;;;4.72;1.35;;;17.40;99.90;;;;;;4838905;29;20041;-78
2022/07/21 17:43:54;;;;;;;1.60;1.35;;;17.40;99.90;;;;;;4852502;29;20041;-78
2022/07/21 17:46:19;;;;;;;2.70;1.00;;;17.40;99.90;;;;;;4859043;29;20496;-78
2022/07/21 17:48:45;;;;;;;5.72;0.98;;;17.50;99.90;;;;;;4865300;29;20056;-79
2022/07/21 17:51:12;;;;;;;1.52;1.10;;;17.40;99.90;;;;;;4870449;29;20090;-78
2022/07/21 17:53:38;;;;;;;7.03;1.25;;;17.30;99.90;;;;;;4862663;29;20169;-79
2022/07/21 17:56:04;;;;;;;3.20;1.40;;;17.30;99.90;;;;;;4866017;29;20102;-79
2022/07/21 17:58:45;;;;;;;3.58;1.10;;;17.30;99.90;;;;;;4855575;29;20128;-78
2022/07/21 18:01:19;;;;;;;1.17;0.90;;;17.30;99.90;;;;;;4860957;29;20022;-78
2022/07/21 18:03:44;;;;;;;4.63;1.60;;;17.30;99.90;;;;;;4858170;29;20117;-78
2022/07/21 18:06:11;;;;;;;2.58;1.35;;;17.20;99.90;;;;;;4861496;29;20100;-77
2022/07/21 18:08:37;;;;;;;6.15;1.40;;;17.10;99.90;;;;;;4875652;29;20029;-79
2022/07/21 18:11:03;;;;;;;8.63;1.90;;;17.10;99.90;;;;;;4852112;29;20112;-78
2022/07/21 18:13:29;;;;;;;7.97;1.50;;;17.10;99.90;;;;;;4861729;29;20025;-78
2022/07/21 18:15:55;;;;;;;4.88;1.33;;;17.10;99.90;;;;;;4866220;29;20406;-78
2022/07/21 18:18:21;;;;;;;7.38;1.67;;;17.10;99.90;;;;;;4860703;29;20037;-77
2022/07/21 18:20:46;;;;;;;4.13;1.63;;;17.20;99.90;;;;;;4863932;29;20033;-77
2022/07/21 18:23:12;;;;;;;13.05;2.10;;;17.20;99.90;;;;;;4867611;29;20400;-78
2022/07/21 18:25:39;;;;;;;10.93;1.92;;;17.10;99.90;;;;;;4864258;29;20037;-77
2022/07/21 18:28:07;;;;;;;6.22;1.77;;;17.10;99.90;;;;;;4863819;29;20036;-79
2022/07/21 18:30:33;;;;;;;;;;;17.10;99.90;;;;;;4865550;29;20036;-78
2022/07/21 18:32:58;;;;;;;8.32;1.60;;;17.10;99.90;;;;;;4843815;29;21204;-78
2022/07/21 18:35:24;;;;;;;9.85;1.67;;;17.10;99.90;;;;;;4848756;29;20050;-78
2022/07/21 18:37:49;;;;;;;4.78;1.60;;;17.20;99.90;;;;;;4859795;29;20054;-78
2022/07/21 18:40:15;;;;;;;10.35;1.65;;;17.10;99.90;;;;;;4850490;29;20462;-78
2022/07/21 18:42:41;;;;;;;7.05;2.20;;;17.20;99.90;;;;;;4843888;29;20045;-77
2022/07/21 18:45:07;;;;;;;8.23;1.92;;;17.20;99.90;;;;;;4847079;29;20025;-78
2022/07/21 18:47:33;;;;;;;7.53;2.20;;;17.20;99.90;;;;;;4858241;29;20037;-77
2022/07/21 18:49:59;;;;;;;13.55;2.22;;;17.30;99.90;;;;;;4864722;29;20096;-78
2022/07/21 18:52:25;;;;;;;5.47;2.05;;;17.30;99.90;;;;;;4852458;29;20190;-77
2022/07/21 18:54:51;;;;;;;7.80;2.35;;;17.20;99.90;;;;;;4868662;29;20057;-77
2022/07/21 18:57:16;;;;;;;9.30;1.85;;;17.20;99.90;;;;;;4850855;29;20048;-78
2022/07/21 18:59:42;;;;;;;6.50;1.48;;;17.20;99.90;;;;;;4854782;29;20133;-77
2022/07/21 19:02:08;;;;;;;6.10;1.67;;;17.20;99.90;;;;;;4853833;29;20371;-78
2022/07/21 19:04:34;;;;;;;3.63;1.88;;;17.20;99.90;;;;;;4856672;29;20064;-79
2022/07/21 19:06:59;;;;;;;7.53;1.95;;;17.20;99.90;;;;;;4859772;29;20085;-79
2022/07/21 19:09:25;;;;;;;5.95;1.92;;;17.30;99.90;;;;;;4841710;29;20033;-78
2022/07/21 19:11:50;;;;;;;7.90;1.95;;;17.30;99.90;;;;;;4843341;29;20450;-79
2022/07/21 19:14:16;;;;;;;7.38;2.05;;;17.20;99.90;;;;;;4857026;29;20029;-78
2022/07/21 19:16:42;;;;;;;6.35;2.17;;;17.20;99.90;;;;;;4860960;29;20033;-78
2022/07/21 19:19:07;;;;;;;8.25;1.65;;;17.20;99.90;;;;;;4858189;29;20033;-79
2022/07/21 19:21:33;;;;;;;2.78;1.48;;;17.20;99.90;;;;;;4847880;29;20044;-78
2022/07/21 19:23:58;;;;;;;3.25;1.45;;;17.20;99.90;;;;;;4854714;29;20022;-77
2022/07/21 19:26:24;;;;;;;5.80;1.83;;;17.30;99.90;;;;;;4837052;29;20029;-77
2022/07/21 19:28:54;;;;;;;8.23;1.55;;;17.20;99.90;;;;;;4854140;29;20036;-78
2022/07/21 19:31:21;;;;;;;5.05;1.55;;;17.30;99.90;;;;;;4847256;29;20034;-78
2022/07/21 19:33:47;;;;;;;10.17;1.97;;;17.30;99.90;;;;;;4851716;29;20405;-78
2022/07/21 19:36:14;;;;;;;6.82;1.27;;;17.20;99.90;;;;;;4864388;29;20025;-79
2022/07/21 19:38:39;;;;;;;8.55;2.03;;;17.30;99.90;;;;;;4840911;29;20095;-79
2022/07/21 19:41:05;;;;;;;7.68;1.90;;;17.20;99.90;;;;;;4841081;29;20459;-79
2022/07/21 19:43:31;;;;;;;7.18;1.40;;;17.20;99.90;;;;;;4830868;29;20133;-79
2022/07/21 19:45:57;;;;;;;9.27;1.80;;;17.20;99.90;;;;;;4840326;29;20133;-79
2022/07/21 19:48:23;;;;;;;7.63;1.52;;;17.10;99.90;;;;;;4837844;29;20070;-78
2022/07/21 19:50:49;;;;;;;2.97;1.38;;;17.10;99.90;;;;;;4839529;29;20034;-78
2022/07/21 19:53:14;;;;;;;1.23;1.00;;;16.90;99.90;;;;;;4840702;29;20086;-79
2022/07/21 19:55:40;;;;;;;5.20;1.65;;;16.90;99.90;;;;;;4843034;29;20045;-78
2022/07/21 19:58:06;;;;;;;3.88;1.20;;;16.90;99.90;;;;;;4845682;29;20114;-78
2022/07/21 20:00:33;;;;;;;7.47;1.40;;;16.90;99.90;;;;;;4844002;29;20074;-79
2022/07/21 20:02:58;;;;;;;5.97;0.93;;;16.80;99.90;;;;;;4838505;29;20037;-78
2022/07/21 20:05:24;;;;;;;8.50;1.50;;;16.80;99.90;;;;;;4841527;29;20038;-78
2022/07/21 20:07:49;;;;;;;6.32;1.05;;;16.70;99.90;;;;;;4837729;29;20394;-78
2022/07/21 20:10:15;;;;;;;1.95;1.00;;;16.80;99.90;;;;;;4841768;29;20042;-78
2022/07/21 20:12:41;;;;;;;6.05;1.27;;;16.80;99.90;;;;;;4833542;29;20104;-77
2022/07/21 20:15:09;;;;;;;2.85;0.93;;;16.80;99.90;;;;;;4840207;29;20033;-78
2022/07/21 20:17:34;;;;;;;5.60;0.95;;;16.80;99.90;;;;;;4835268;29;20081;-78
2022/07/21 20:20:00;;;;;;;11.30;1.38;;;16.80;99.90;;;;;;4844583;29;20073;-78
2022/07/21 20:22:25;;;;;;;6.47;1.20;;;16.80;99.90;;;;;;4840745;29;20029;-79
2022/07/21 20:24:51;;;;;;;3.88;1.80;;;16.90;99.90;;;;;;4837198;29;20113;-78
2022/07/21 20:27:17;;;;;;;4.85;1.75;;;16.90;99.90;;;;;;4845368;29;20025;-78
2022/07/21 20:29:42;;;;;;;5.28;1.73;;;16.90;99.90;;;;;;4833358;29;20044;-77
2022/07/21 20:32:08;;;;;;;8.60;1.67;;;16.90;99.90;;;;;;4843078;29;20094;-77
2022/07/21 20:34:34;;;;;;;8.13;1.50;;;16.90;99.90;;;;;;4851121;29;20030;-77
2022/07/21 20:36:59;;;;;;;7.45;1.73;;;16.80;99.90;;;;;;4846674;29;20042;-78
2022/07/21 20:39:25;;;;;;;5.05;1.00;;;16.80;99.90;;;;;;4857318;29;20058;-78
2022/07/21 20:41:50;;;;;;;5.63;1.70;;;16.80;99.90;;;;;;4858650;29;20494;-78
2022/07/21 20:44:17;;;;;;;7.03;1.63;;;16.80;99.90;;;;;;4844546;29;20044;-77
2022/07/21 20:46:43;;;;;;;9.38;1.58;;;16.80;99.90;;;;;;4859738;29;20030;-77
2022/07/21 20:49:08;;;;;;;3.22;1.40;;;16.80;99.90;;;;;;4841864;29;20094;-78
2022/07/21 20:51:34;;;;;;;9.95;2.58;;;16.80;99.90;;;;;;4857063;29;20041;-76
2022/07/21 20:54:00;;;;;;;4.95;2.20;;;16.80;99.90;;;;;;4874027;29;20029;-78
2022/07/21 20:56:25;;;;;;;7.60;1.63;;;16.70;99.90;;;;;;4850013;29;20694;-78
2022/07/21 20:58:51;;;;;;;4.70;1.65;;;16.60;99.90;;;;;;4853429;29;20498;-78
2022/07/21 21:01:16;;;;;;;3.67;1.65;;;16.60;99.90;;;;;;4859968;29;20026;-78
2022/07/21 21:03:43;;;;;;;5.43;1.85;;;16.50;99.90;;;;;;4863682;29;20022;-77
2022/07/21 21:06:08;;;;;;;5.47;1.52;;;16.50;99.90;;;;;;4856686;29;20042;-78
2022/07/21 21:08:34;;;;;;;6.85;2.25;;;16.50;99.90;;;;;;4860518;29;20426;-78
2022/07/21 21:11:00;;;;;;;4.63;1.52;;;16.50;99.90;;;;;;4843863;29;20590;-78
2022/07/21 21:13:25;;;;;;;6.15;1.92;;;16.50;99.90;;;;;;4861868;29;20078;-77
2022/07/21 21:15:51;;;;;;;86.88;72.53;;;16.50;99.90;;;;;;4839906;29;20038;-78
2022/07/21 21:18:16;;;;;;;53.58;36.13;;;16.50;99.90;;;;;;4857136;29;20034;-77
2022/07/21 21:20:42;;;;;;;12.27;5.00;;;16.50;99.90;;;;;;4845597;29;20478;-78
2022/07/21 21:23:08;;;;;;;6.80;1.40;;;16.50;99.90;;;;;;4857556;29;20409;-78
2022/07/21 21:25:34;;;;;;;8.85;1.55;;;16.50;99.90;;;;;;4860302;29;20033;-78
2022/07/21 21:28:00;;;;;;;8.35;2.17;;;16.60;99.90;;;;;;4858261;29;20451;-78
2022/07/21 21:30:25;;;;;;;7.95;2.47;;;16.50;99.90;;;;;;4855841;29;20029;-77
2022/07/21 21:32:51;;;;;;;6.85;1.98;;;16.50;99.90;;;;;;4848379;29;20400;-78
2022/07/21 21:35:17;;;;;;;8.88;2.22;;;16.60;99.90;;;;;;4860716;29;20459;-78
2022/07/21 21:37:43;;;;;;;12.02;1.67;;;16.60;99.90;;;;;;4867695;29;20493;-78
2022/07/21 21:40:10;;;;;;;5.90;1.58;;;16.50;99.90;;;;;;4856573;29;20038;-78
2022/07/21 21:42:36;;;;;;;7.15;1.80;;;16.50;99.90;;;;;;4864662;29;20037;-78
2022/07/21 21:45:03;;;;;;;11.35;2.20;;;16.60;99.90;;;;;;4864389;29;20085;-78
2022/07/21 21:47:28;;;;;;;5.40;1.50;;;16.60;99.90;;;;;;4861975;29;20112;-77
2022/07/21 21:49:54;;;;;;;9.60;2.63;;;16.60;99.90;;;;;;4863831;29;20052;-78
2022/07/21 21:52:19;;;;;;;6.75;2.00;;;16.60;99.90;;;;;;4847891;29;20066;-77
2022/07/21 21:54:45;;;;;;;4.05;1.70;;;16.60;99.90;;;;;;4846402;29;20128;-77
2022/07/21 21:57:11;;;;;;;8.68;1.75;;;16.70;99.90;;;;;;4859977;29;20049;-78
2022/07/21 21:59:36;;;;;;;11.95;2.83;;;16.70;99.90;;;;;;4855229;29;20391;-77
2022/07/21 22:02:02;;;;;;;5.18;1.92;;;16.70;99.90;;;;;;4846461;29;20045;-78
2022/07/21 22:04:28;;;;;;;3.42;2.13;;;16.70;99.90;;;;;;4873898;29;20109;-78
2022/07/21 22:06:53;;;;;;;6.47;2.45;;;16.70;99.90;;;;;;4853583;29;20026;-78
2022/07/21 22:09:21;;;;;;;12.60;2.58;;;16.70;99.90;;;;;;4840228;29;20487;-77
2022/07/21 22:11:47;;;;;;;5.43;2.72;;;16.80;99.90;;;;;;4847985;29;20393;-77
2022/07/21 22:14:12;;;;;;;11.00;2.10;;;16.80;99.90;;;;;;4861058;29;20116;-78
2022/07/21 22:16:38;;;;;;;4.68;1.75;;;16.80;99.90;;;;;;4835745;29;20117;-78
2022/07/21 22:19:03;;;;;;;6.43;2.50;;;16.80;99.90;;;;;;4860490;29;20038;-78
2022/07/21 22:21:29;;;;;;;4.47;1.80;;;16.80;99.90;;;;;;4841388;29;20037;-77
2022/07/21 22:23:56;;;;;;;6.07;2.15;;;16.80;99.90;;;;;;4848054;29;20125;-77
2022/07/21 22:26:22;;;;;;;9.55;2.10;;;16.80;99.90;;;;;;4861322;29;20036;-77
2022/07/21 22:28:48;;;;;;;4.70;1.83;;;16.80;99.90;;;;;;4867609;29;20033;-78
2022/07/21 22:31:17;;;;;;;6.25;2.45;;;16.80;99.90;;;;;;4842312;29;20261;-77
2022/07/21 22:33:43;;;;;;;3.67;1.55;;;16.80;99.90;;;;;;4860677;29;20033;-77
2022/07/21 22:36:10;;;;;;;5.18;1.95;;;16.80;99.90;;;;;;4860390;29;20474;-77
2022/07/21 22:38:35;;;;;;;3.72;1.58;;;16.80;99.90;;;;;;4857457;29;20502;-77
2022/07/21 22:41:02;;;;;;;5.50;1.77;;;16.80;99.90;;;;;;4843005;29;20029;-77
2022/07/21 22:43:28;;;;;;;16.05;3.13;;;16.80;99.90;;;;;;4861424;29;20037;-77
2022/07/21 22:45:53;;;;;;;11.82;1.83;;;16.80;99.90;;;;;;4842723;29;20044;-77
2022/07/21 22:48:19;;;;;;;4.78;1.92;;;16.90;99.90;;;;;;4846650;29;20487;-77
2022/07/21 22:50:44;;;;;;;15.75;2.10;;;16.80;99.90;;;;;;4860121;29;20032;-77
2022/07/21 22:53:10;;;;;;;8.35;1.67;;;16.80;99.90;;;;;;4865144;29;20033;-77
2022/07/21 22:55:35;;;;;;;5.47;2.17;;;16.90;99.90;;;;;;4847038;29;20052;-76
2022/07/21 22:58:01;;;;;;;3.10;1.70;;;16.90;99.90;;;;;;4859203;29;20113;-76
2022/07/21 23:00:28;;;;;;;10.85;1.80;;;16.90;99.90;;;;;;4860575;29;20369;-77
2022/07/21 23:02:54;;;;;;;6.40;1.55;;;17.00;99.90;;;;;;4858948;29;20120;-76
2022/07/21 23:05:20;;;;;;;8.63;1.98;;;16.90;99.90;;;;;;4854771;29;20559;-77
2022/07/21 23:07:47;;;;;;;8.43;2.58;;;17.00;99.90;;;;;;4855489;29;20466;-77
2022/07/21 23:10:14;;;;;;;4.27;2.00;;;17.00;99.90;;;;;;4858529;29;20032;-77
2022/07/21 23:12:40;;;;;;;11.27;1.50;;;17.00;99.90;;;;;;4858196;29;20270;-76
2022/07/21 23:15:07;;;;;;;5.78;1.95;;;17.00;99.90;;;;;;4859919;29;21461;-77
2022/07/21 23:17:33;;;;;;;9.52;1.83;;;17.00;99.90;;;;;;4845752;29;20030;-77
2022/07/21 23:19:59;;;;;;;16.20;3.05;;;17.00;99.90;;;;;;4858763;29;20082;-76
2022/07/21 23:22:25;;;;;;;8.75;2.13;;;17.00;99.90;;;;;;4857075;29;20029;-77
2022/07/21 23:24:51;;;;;;;10.70;2.47;;;17.10;99.90;;;;;;4841469;29;20033;-76
2022/07/21 23:27:16;;;;;;;5.57;1.77;;;17.10;99.90;;;;;;4846692;29;20029;-77
2022/07/21 23:29:42;;;;;;;7.03;1.60;;;17.00;99.90;;;;;;4847057;29;20030;-77
2022/07/21 23:32:07;;;;;;;5.78;2.05;;;17.00;99.90;;;;;;4861001;29;20030;-76
2022/07/21 23:34:33;;;;;;;6.55;2.20;;;17.10;99.90;;;;;;4854554;29;20043;-77
2022/07/21 23:36:59;;;;;;;12.15;1.75;;;17.10;99.90;;;;;;4841472;29;20098;-77
2022/07/21 23:39:24;;;;;;;9.93;2.10;;;17.00;99.90;;;;;;4838170;29;20529;-76
2022/07/21 23:41:50;;;;;;;6.30;1.90;;;17.00;99.90;;;;;;4838552;29;20038;-77
2022/07/21 23:44:15;;;;;;;8.80;2.13;;;17.00;99.90;;;;;;4839452;29;20034;-77
2022/07/21 23:46:41;;;;;;;4.97;1.98;;;17.00;99.90;;;;;;4851329;29;20132;-76
2022/07/21 23:49:07;;;;;;;7.22;1.75;;;17.00;99.90;;;;;;4840246;29;20029;-77
2022/07/21 23:51:32;;;;;;;7.00;1.23;;;17.00;99.90;;;;;;4841135;29;20514;-76
2022/07/21 23:53:58;;;;;;;13.70;1.77;;;17.00;99.90;;;;;;4842479;29;20069;-77
2022/07/21 23:56:23;;;;;;;7.55;1.67;;;17.00;99.90;;;;;;4838322;29;20443;-77
2022/07/21 23:58:49;;;;;;;6.32;1.65;;;17.00;99.90;;;;;;4834317;29;20134;-78
